Time;durP1;ratioP1;P1;durP2;ratioP2;P2;SDS_P1;SDS_P2;PMS_P1;PMS_P2;Temp;Humidity;BMP_temperature;BMP_pressure;BME280_temperature;BME280_humidity;BME280_pressure;Samples;Min_cycle;Max_cycle;Signal;HPM_P1;HPM_P2
2021/03/27 00:01:08;;;;;;;11.45;1.70;;;;;;;2.98;70.68;100524.13;5052276;28;20041;-50
2021/03/27 00:03:41;;;;;;;8.10;1.75;;;;;;;2.97;71.08;100508.81;5069840;28;20045;-53
2021/03/27 00:06:17;;;;;;;9.90;3.95;;;;;;;2.98;71.16;100519.47;5069193;28;20063;-49
2021/03/27 00:09:12;;;;;;;6.60;1.70;;;;;;;2.93;71.32;100527.75;5067968;28;20079;-50
2021/03/27 00:11:44;;;;;;;13.52;2.22;;;;;;;2.93;71.69;100526.94;5069973;28;20080;-48
2021/03/27 00:14:16;;;;;;;6.38;1.60;;;;;;;2.93;71.59;100522.28;5070556;28;20068;-51
2021/03/27 00:17:00;;;;;;;8.70;1.90;;;;;;;2.89;72.27;100548.59;5071699;28;20444;-48
2021/03/27 00:19:53;;;;;;;9.88;2.60;;;;;;;2.85;72.53;100544.84;5070183;28;20056;-49
2021/03/27 00:22:33;;;;;;;5.68;1.95;;;;;;;2.89;71.92;100548.59;5071967;28;20055;-52
2021/03/27 00:25:25;;;;;;;6.18;3.30;;;;;;;2.88;71.80;100541.53;5071103;28;20102;-52
2021/03/27 00:27:57;;;;;;;8.25;2.15;;;;;;;2.86;72.34;100543.72;5063739;28;20147;-51
2021/03/27 00:30:37;;;;;;;5.65;2.03;;;;;;;2.86;72.43;100546.47;5087074;28;20044;-52
2021/03/27 00:33:06;;;;;;;8.90;1.85;;;;;;;2.87;72.00;100550.00;5052559;28;20102;-51
2021/03/27 00:35:41;;;;;;;6.82;1.65;;;;;;;2.87;72.39;100544.53;5056427;28;20127;-49
2021/03/27 00:38:14;;;;;;;6.10;2.63;;;;;;;2.88;72.50;100547.00;5071203;28;20079;-49
2021/03/27 00:40:49;;;;;;;10.48;2.65;;;;;;;2.86;72.72;100549.19;5071286;28;20083;-55
2021/03/27 00:43:34;;;;;;;5.90;2.10;;;;;;;2.82;72.91;100559.13;5070063;28;20448;-53
2021/03/27 00:46:05;;;;;;;7.82;2.20;;;;;;;2.86;72.26;100554.66;5062264;28;20119;-50
2021/03/27 00:48:36;;;;;;;8.05;1.90;;;;;;;2.86;72.48;100560.13;5051544;28;20041;-49
2021/03/27 00:51:12;;;;;;;7.32;2.13;;;;;;;2.83;72.78;100560.72;5065556;28;20118;-50
2021/03/27 00:54:08;;;;;;;9.05;2.17;;;;;;;2.83;73.44;100568.91;5071117;28;20048;-52
2021/03/27 00:56:57;;;;;;;13.90;4.75;;;;;;;2.87;72.49;100578.16;5063910;28;20080;-51
2021/03/27 00:59:28;;;;;;;9.48;2.22;;;;;;;2.84;72.54;100564.28;5070111;28;20126;-49
2021/03/27 01:01:57;;;;;;;8.82;2.30;;;;;;;2.85;72.50;100580.41;5071317;28;20390;-52
2021/03/27 01:04:31;;;;;;;14.57;2.53;;;;;;;2.83;72.76;100577.13;5069962;28;20482;-54
2021/03/27 01:07:02;;;;;;;12.45;2.40;;;;;;;2.86;72.48;100582.00;5071624;28;20127;-53
2021/03/27 01:09:56;;;;;;;7.45;2.03;;;;;;;2.83;72.98;100584.53;5057451;28;20041;-50
2021/03/27 01:12:37;;;;;;;8.32;2.15;;;;;;;2.83;72.40;100588.06;5056143;28;20150;-51
2021/03/27 01:15:14;;;;;;;10.18;2.20;;;;;;;2.79;72.90;100587.03;5069800;28;20097;-49
2021/03/27 01:17:44;;;;;;;17.42;2.20;;;;;;;2.78;72.53;100590.88;5070714;28;20048;-53
2021/03/27 01:20:22;;;;;;;15.00;2.53;;;;;;;2.74;72.84;100589.84;5069153;28;20051;-51
2021/03/27 01:22:51;;;;;;;10.85;2.25;;;;;;;2.74;72.51;100592.59;5069190;28;20064;-53
2021/03/27 01:25:29;;;;;;;6.88;2.10;;;;;;;2.74;72.90;100594.50;5068673;28;20082;-48
2021/03/27 01:28:19;;;;;;;8.30;2.45;;;;;;;2.73;72.95;100604.63;5055064;28;20485;-50
2021/03/27 01:30:58;;;;;;;8.45;1.90;;;;;;;2.75;72.45;100609.81;5070005;28;20057;-51
2021/03/27 01:33:28;;;;;;;8.00;2.25;;;;;;;2.73;72.35;100603.81;5069856;28;20044;-50
2021/03/27 01:35:58;;;;;;;22.17;3.45;;;;;;;2.72;72.41;100615.88;5070574;28;20052;-52
2021/03/27 01:38:44;;;;;;;14.80;2.78;;;;;;;2.70;72.69;100610.69;5071147;28;20467;-50
2021/03/27 01:41:31;;;;;;;5.93;1.70;;;;;;;2.69;72.81;100611.81;5073089;28;20512;-51
2021/03/27 01:44:14;;;;;;;13.45;2.63;;;;;;;2.69;72.57;100624.66;5074112;28;20048;-52
2021/03/27 01:47:17;;;;;;;9.98;2.80;;;;;;;2.65;73.24;100615.44;5075125;28;20417;-51
2021/03/27 01:50:10;;;;;;;12.35;2.55;;;;;;;2.63;72.92;100621.19;4992724;28;20155;-51
2021/03/27 01:52:39;;;;;;;8.00;3.00;;;;;;;2.63;72.59;100615.72;5073068;28;20422;-48
2021/03/27 01:55:25;;;;;;;15.77;2.97;;;;;;;2.61;72.93;100628.06;5074660;28;20056;-50
2021/03/27 01:57:58;;;;;;;10.98;2.42;;;;;;;2.60;72.70;100637.34;5074490;28;20508;-49
2021/03/27 02:00:31;;;;;;;15.38;3.35;;;;;;;2.58;72.88;100629.47;5074481;28;20044;-48
2021/03/27 02:03:07;;;;;;;7.00;2.95;;;;;;;2.57;72.68;100636.00;5074040;28;20131;-54
2021/03/27 02:05:40;;;;;;;10.18;2.05;;;;;;;2.59;72.88;100638.47;5074635;28;20129;-49
2021/03/27 02:08:14;;;;;;;9.00;2.20;;;;;;;2.57;73.11;100648.88;5074445;28;20074;-52
2021/03/27 02:10:44;;;;;;;9.68;2.28;;;;;;;2.58;72.72;100662.25;5065926;28;20490;-50
2021/03/27 02:13:22;;;;;;;11.80;2.60;;;;;;;2.58;72.57;100662.25;5071918;28;20044;-50
2021/03/27 02:16:06;;;;;;;13.88;3.15;;;;;;;2.55;73.09;100662.84;5074370;28;20047;-51
2021/03/27 02:19:02;;;;;;;7.05;2.80;;;;;;;2.57;72.92;100671.53;5074249;28;20433;-51
2021/03/27 02:21:49;;;;;;;12.95;2.40;;;;;;;2.57;72.88;100682.47;5073985;28;20052;-48
2021/03/27 02:24:26;;;;;;;5.15;1.88;;;;;;;2.52;72.82;100685.28;5074164;28;20577;-49
2021/03/27 02:27:01;;;;;;;10.13;3.25;;;;;;;2.51;72.70;100683.66;5073391;28;20480;-49
2021/03/27 02:29:46;;;;;;;7.38;1.98;;;;;;;2.49;73.40;100693.25;5073813;28;20154;-53
2021/03/27 02:32:20;;;;;;;10.23;3.17;;;;;;;2.51;72.41;100682.84;5073175;28;20043;-49
2021/03/27 02:34:57;;;;;;;9.90;2.47;;;;;;;2.44;72.71;100691.38;5073856;28;20126;-53
2021/03/27 02:37:32;;;;;;;16.10;2.50;;;;;;;2.45;72.98;100701.22;5073923;28;20057;-51
2021/03/27 02:40:12;;;;;;;6.95;2.58;;;;;;;2.44;73.09;100699.59;5073446;28;20068;-50
2021/03/27 02:43:17;;;;;;;11.63;2.13;;;;;;;2.43;72.94;100711.63;5059146;28;20421;-49
2021/03/27 02:45:53;;;;;;;18.23;3.90;;;;;;;2.40;73.24;100720.41;5070915;28;20468;-53
2021/03/27 02:48:47;;;;;;;12.63;2.25;;;;;;;2.41;73.17;100730.22;5073842;28;20044;-54
2021/03/27 02:51:38;;;;;;;11.93;2.80;;;;;;;2.41;72.71;100717.38;5072767;28;20110;-51
2021/03/27 02:54:09;;;;;;;10.98;2.83;;;;;;;2.40;72.76;100723.16;5068846;28;20076;-50
2021/03/27 02:56:57;;;;;;;4.80;1.80;;;;;;;2.38;73.26;100720.69;5060103;28;20362;-50
2021/03/27 02:59:39;;;;;;;9.32;2.15;;;;;;;2.38;72.73;100723.41;5070958;28;20504;-55
2021/03/27 03:02:28;;;;;;;12.48;1.88;;;;;;;2.35;73.14;100728.69;5071088;28;20587;-54
2021/03/27 03:04:59;;;;;;;15.00;3.72;;;;;;;2.39;72.95;100735.16;5073478;28;20052;-52
2021/03/27 03:07:45;;;;;;;13.55;2.40;;;;;;;2.38;73.24;100742.53;5072865;28;20063;-50
2021/03/27 03:10:23;;;;;;;11.13;3.08;;;;;;;2.37;72.90;100754.59;5071465;28;20141;-53
2021/03/27 03:13:11;;;;;;;6.75;2.83;;;;;;;2.36;73.04;100752.13;5073005;28;20045;-50
2021/03/27 03:16:04;;;;;;;10.40;2.92;;;;;;;2.38;72.99;100749.94;5051929;28;20044;-54
2021/03/27 03:19:00;;;;;;;;;;;;;;;2.39;73.25;100740.63;5053774;28;20037;-49
2021/03/27 03:21:45;;;;;;;9.48;3.42;;;;;;;2.37;73.00;100768.25;5050708;28;19921;-51
2021/03/27 03:24:22;;;;;;;10.07;2.67;;;;;;;2.40;72.95;100777.78;5055728;28;20036;-50
2021/03/27 03:27:13;;;;;;;10.05;2.58;;;;;;;2.38;73.14;100786.25;5072093;28;20124;-53
2021/03/27 03:29:45;;;;;;;20.27;2.83;;;;;;;2.39;72.88;100790.63;5072988;28;20048;-53
2021/03/27 03:32:14;;;;;;;;;;;;;;;2.37;73.22;100775.63;5073379;28;20462;-53
2021/03/27 03:34:56;;;;;;;18.27;3.20;;;;;;;2.39;72.51;100790.63;5072734;28;19925;-50
2021/03/27 03:37:40;;;;;;;10.90;3.38;;;;;;;2.40;72.92;100796.91;5072131;28;20056;-52
2021/03/27 03:40:31;;;;;;;10.77;2.85;;;;;;;2.39;73.34;100800.72;5072661;28;20097;-51
2021/03/27 03:43:03;;;;;;;11.13;2.45;;;;;;;2.38;73.05;100807.31;5069207;28;20110;-53
2021/03/27 03:45:43;;;;;;;10.93;3.67;;;;;;;2.38;73.22;100815.53;5065281;28;20124;-51
2021/03/27 03:48:47;;;;;;;12.60;1.95;;;;;;;2.38;73.41;100810.06;5052207;28;20041;-51
2021/03/27 03:51:25;;;;;;;13.00;3.85;;;;;;;2.40;72.97;100808.66;5052092;28;20076;-52
2021/03/27 03:54:16;;;;;;;8.52;3.30;;;;;;;2.40;73.66;100818.78;5055926;28;20395;-53
2021/03/27 03:56:48;;;;;;;13.57;3.83;;;;;;;2.39;72.98;100817.13;5066928;28;20079;-52
2021/03/27 03:59:26;;;;;;;14.55;3.53;;;;;;;2.39;73.58;100828.06;5055026;28;20448;-54
2021/03/27 04:02:00;;;;;;;11.13;2.20;;;;;;;2.42;73.33;100832.94;5072520;28;20138;-52
2021/03/27 04:04:41;;;;;;;17.58;2.35;;;;;;;2.42;73.37;100836.50;5072455;28;20120;-48
2021/03/27 04:07:12;;;;;;;14.77;2.42;;;;;;;2.42;73.14;100835.69;5072343;28;20457;-49
2021/03/27 04:09:46;;;;;;;21.45;3.42;;;;;;;2.45;73.26;100843.31;5070061;28;20070;-52
2021/03/27 04:12:19;;;;;;;13.45;2.03;;;;;;;2.45;73.44;100843.31;5062464;28;20088;-51
2021/03/27 04:15:09;;;;;;;;;;;;;;;2.42;74.49;100846.59;5072745;28;20044;-53
2021/03/27 04:17:38;;;;;;;14.93;2.72;;;;;;;2.44;73.62;100847.94;5072343;28;19931;-49
2021/03/27 04:20:29;;;;;;;16.45;2.53;;;;;;;2.51;73.69;100858.56;5071497;28;20051;-51
2021/03/27 04:22:55;;;;;;;12.98;2.25;;;;;;;2.58;73.57;100855.47;5071781;28;20086;-50
2021/03/27 04:25:36;;;;;;;12.77;2.85;;;;;;;2.63;73.82;100864.44;5071992;28;20123;-50
2021/03/27 04:28:20;;;;;;;16.23;2.40;;;;;;;2.70;74.12;100855.91;5071294;28;20119;-50
2021/03/27 04:31:08;;;;;;;15.40;4.03;;;;;;;2.75;74.06;100870.31;5071704;28;20040;-50
2021/03/27 04:34:10;;;;;;;11.63;3.03;;;;;;;2.80;74.10;100881.19;5071640;28;20041;-50
2021/03/27 04:36:52;;;;;;;17.42;3.47;;;;;;;2.85;73.77;100892.06;5083896;28;20135;-50
2021/03/27 04:39:24;;;;;;;12.45;2.22;;;;;;;2.91;73.41;100895.56;5092107;28;20036;-50
2021/03/27 04:42:07;;;;;;;8.20;2.17;;;;;;;2.94;73.68;100906.72;5080851;28;20052;-52
2021/03/27 04:45:08;;;;;;;9.88;2.33;;;;;;;2.94;73.84;100909.47;5071790;28;20048;-51
2021/03/27 04:47:49;;;;;;;14.80;3.78;;;;;;;2.92;73.59;100908.94;5071148;28;20555;-53
2021/03/27 04:50:34;;;;;;;16.47;3.60;;;;;;;2.90;73.42;100911.16;5073055;28;20087;-49
2021/03/27 04:53:29;;;;;;;6.57;1.63;;;;;;;2.87;73.40;100903.53;5051197;28;20060;-49
2021/03/27 04:56:17;;;;;;;15.82;3.47;;;;;;;2.85;73.53;100903.00;5051251;28;20033;-50
2021/03/27 04:59:20;;;;;;;12.05;2.70;;;;;;;2.85;73.65;100908.47;5060339;28;20051;-50
2021/03/27 05:01:52;;;;;;;17.55;3.78;;;;;;;2.83;73.31;100921.59;5071330;28;20048;-49
2021/03/27 05:04:27;;;;;;;8.20;2.70;;;;;;;2.82;73.47;100916.44;5071400;28;20128;-51
2021/03/27 05:07:05;;;;;;;16.80;2.85;;;;;;;2.80;73.79;100927.69;5071407;28;20044;-51
2021/03/27 05:09:57;;;;;;;12.52;2.25;;;;;;;2.81;73.56;100929.28;5068194;28;20072;-49
2021/03/27 05:12:52;;;;;;;18.50;3.00;;;;;;;2.80;74.04;100940.53;5038357;28;20143;-52
2021/03/27 05:15:33;;;;;;;13.52;2.28;;;;;;;2.79;73.61;100936.97;5072798;28;20095;-48
2021/03/27 05:18:18;;;;;;;11.65;2.88;;;;;;;2.75;73.91;100946.88;5075527;28;20098;-50
2021/03/27 05:20:54;;;;;;;12.50;2.38;;;;;;;2.76;74.04;100953.94;5075561;28;20090;-51
2021/03/27 05:23:29;;;;;;;9.77;2.00;;;;;;;2.73;74.68;100957.25;5058133;28;20083;-51
2021/03/27 05:26:26;;;;;;;13.52;2.25;;;;;;;2.70;74.85;100971.50;5068549;28;20090;-52
2021/03/27 05:29:04;;;;;;;22.48;2.47;;;;;;;2.72;74.47;100968.50;5062705;28;20102;-49
2021/03/27 05:31:39;;;;;;;9.68;3.60;;;;;;;2.75;73.97;100979.69;5073549;28;20058;-52
2021/03/27 05:34:33;;;;;;;15.77;2.83;;;;;;;2.73;74.43;100970.91;5055014;28;20059;-52
2021/03/27 05:37:11;;;;;;;19.60;3.25;;;;;;;2.75;74.06;100985.13;5073861;28;20088;-52
2021/03/27 05:39:44;;;;;;;13.05;2.55;;;;;;;2.75;74.19;100996.06;5074811;28;20052;-51
2021/03/27 05:42:13;;;;;;;16.58;4.70;;;;;;;2.75;73.84;100998.81;5071607;28;20139;-51
2021/03/27 05:44:39;;;;;;;13.25;3.05;;;;;;;2.75;73.80;101001.53;5075292;28;20102;-54
2021/03/27 05:47:17;;;;;;;15.20;2.40;;;;;;;2.71;74.18;101010.59;5074897;28;20064;-51
2021/03/27 05:50:14;;;;;;;16.45;3.50;;;;;;;2.68;74.68;101022.09;5074615;28;20052;-52
2021/03/27 05:52:50;;;;;;;15.40;3.53;;;;;;;2.66;74.66;101027.84;5073583;28;20387;-49
2021/03/27 05:55:44;;;;;;;12.30;2.33;;;;;;;2.66;74.33;101029.75;5063685;28;20055;-48
2021/03/27 05:58:24;;;;;;;7.30;2.08;;;;;;;2.65;74.15;101033.63;5073505;28;20098;-51
2021/03/27 06:01:15;;;;;;;9.05;2.28;;;;;;;2.62;74.30;101034.97;5061871;28;20044;-49
2021/03/27 06:03:53;;;;;;;10.98;3.00;;;;;;;2.61;74.32;101033.38;5054872;28;20433;-49
2021/03/27 06:06:32;;;;;;;6.70;1.65;;;;;;;2.59;74.66;101046.50;5054735;28;20132;-49
2021/03/27 06:09:24;;;;;;;14.25;2.42;;;;;;;2.59;74.45;101056.63;5065407;28;20549;-52
2021/03/27 06:12:23;;;;;;;13.00;2.67;;;;;;;2.61;74.79;101057.13;5073961;28;20049;-51
2021/03/27 06:15:09;;;;;;;8.07;2.50;;;;;;;2.64;74.47;101057.41;5072976;28;20451;-48
2021/03/27 06:18:23;;;;;;;15.30;2.38;;;;;;;2.68;74.72;101061.19;5033116;28;20095;-50
2021/03/27 06:21:10;;;;;;;11.30;2.92;;;;;;;2.75;74.75;101067.16;5012199;28;20149;-53
2021/03/27 06:23:50;;;;;;;20.83;5.50;;;;;;;2.80;74.46;101074.50;5065163;28;20402;-48
2021/03/27 06:26:50;;;;;;;16.92;2.67;;;;;;;2.86;74.40;101070.63;5056309;28;20052;-50
2021/03/27 06:29:59;;;;;;;14.15;3.45;;;;;;;2.92;74.30;101069.47;5073044;28;20128;-48
2021/03/27 06:32:50;;;;;;;11.10;2.42;;;;;;;2.94;74.00;101065.34;5065198;28;20117;-51
2021/03/27 06:35:48;;;;;;;16.07;3.23;;;;;;;2.97;74.01;101070.22;5073843;28;20048;-51
2021/03/27 06:38:42;;;;;;;15.52;3.45;;;;;;;2.99;74.03;101084.44;5074061;28;20040;-48
2021/03/27 06:41:36;;;;;;;15.27;2.47;;;;;;;3.04;74.22;101080.84;5073561;28;20436;-49
2021/03/27 06:44:30;;;;;;;5.30;1.80;;;;;;;3.10;74.00;101073.44;5069588;28;20445;-48
2021/03/27 06:47:18;;;;;;;18.45;2.92;;;;;;;3.15;74.04;101076.09;5058913;28;20049;-50
2021/03/27 06:49:53;;;;;;;19.42;2.83;;;;;;;3.21;74.15;101064.81;5060037;28;20048;-51
2021/03/27 06:52:42;;;;;;;16.50;3.13;;;;;;;3.29;73.72;101068.84;5073510;28;20508;-51
2021/03/27 06:55:30;;;;;;;17.30;2.70;;;;;;;3.36;74.02;101066.59;5073855;28;20045;-50
2021/03/27 06:58:09;;;;;;;16.50;2.55;;;;;;;3.43;73.92;101073.34;5073613;28;20064;-50
2021/03/27 07:00:35;;;;;;;10.13;3.35;;;;;;;3.51;74.05;101066.44;5073576;28;20040;-50
2021/03/27 07:03:21;;;;;;;13.20;2.00;;;;;;;3.57;73.93;101089.91;5073678;28;20106;-53
2021/03/27 07:05:53;;;;;;;10.98;3.30;;;;;;;3.62;73.73;101087.13;5069483;28;20060;-50
2021/03/27 07:08:47;;;;;;;17.58;4.90;;;;;;;3.66;73.74;101099.09;5071965;28;20127;-53
2021/03/27 07:12:01;;;;;;;16.23;3.40;;;;;;;3.71;73.71;101096.31;5070897;28;20422;-49
2021/03/27 07:14:49;;;;;;;22.55;3.92;;;;;;;3.77;73.38;101108.84;5071766;28;20044;-50
2021/03/27 07:17:35;;;;;;;10.70;2.03;;;;;;;3.85;73.40;101108.19;5071920;28;20133;-50
2021/03/27 07:20:40;;;;;;;17.42;5.40;;;;;;;3.91;73.00;101112.53;5072836;28;20137;-53
2021/03/27 07:23:44;;;;;;;14.88;3.28;;;;;;;3.99;73.15;101105.56;5072846;28;20131;-54
2021/03/27 07:26:47;;;;;;;16.75;4.40;;;;;;;4.03;73.03;101112.91;5041156;28;20052;-55
2021/03/27 07:29:41;;;;;;;10.70;2.38;;;;;;;4.07;72.71;101115.88;5072214;28;20041;-50
2021/03/27 07:32:38;;;;;;;11.90;3.50;;;;;;;4.11;72.92;101116.91;5072830;28;20406;-50
2021/03/27 07:35:05;;;;;;;13.32;2.47;;;;;;;4.13;72.80;101109.25;5072892;28;20046;-53
2021/03/27 07:38:24;;;;;;;13.85;2.88;;;;;;;4.16;72.82;101111.38;5072030;28;20053;-49
2021/03/27 07:41:18;;;;;;;16.65;4.43;;;;;;;4.22;72.82;101110.22;5072725;28;20060;-53
2021/03/27 07:43:53;;;;;;;12.50;2.83;;;;;;;4.27;72.67;101105.47;5052607;28;20123;-49
2021/03/27 07:46:46;;;;;;;15.52;2.40;;;;;;;4.31;72.64;101106.50;5066600;28;20056;-54
2021/03/27 07:49:33;;;;;;;14.85;2.60;;;;;;;4.35;72.87;101111.41;5072502;28;20836;-48
2021/03/27 07:52:14;;;;;;;16.65;3.05;;;;;;;4.40;72.69;101114.06;5071077;28;20048;-49
2021/03/27 07:54:43;;;;;;;11.23;2.60;;;;;;;4.44;72.50;101128.84;5072504;28;20485;-52
2021/03/27 07:57:13;;;;;;;13.65;4.00;;;;;;;4.48;72.83;101127.13;5071651;28;20041;-50
2021/03/27 07:59:57;;;;;;;20.00;3.13;;;;;;;4.56;72.86;101120.97;5072435;28;20088;-52
2021/03/27 08:02:53;;;;;;;12.60;2.47;;;;;;;4.61;72.30;101118.16;5052027;28;20051;-50
2021/03/27 08:05:41;;;;;;;15.15;3.17;;;;;;;4.67;72.57;101125.19;5052336;28;20048;-50
2021/03/27 08:08:35;;;;;;;15.25;2.60;;;;;;;4.72;72.69;101127.88;5066387;28;20044;-51
2021/03/27 08:11:16;;;;;;;12.85;3.17;;;;;;;4.75;72.44;101117.13;5059259;28;20493;-55
2021/03/27 08:14:01;;;;;;;14.75;2.10;;;;;;;4.83;72.11;101118.38;5051923;28;20068;-50
2021/03/27 08:16:55;;;;;;;9.52;2.35;;;;;;;4.90;72.24;101119.63;5052401;28;20218;-54
2021/03/27 08:19:54;;;;;;;10.85;2.60;;;;;;;5.05;72.39;101126.00;5067478;28;20048;-50
2021/03/27 08:22:30;;;;;;;13.95;3.15;;;;;;;5.14;72.42;101122.25;5052234;28;20463;-50
2021/03/27 08:25:11;;;;;;;13.55;2.47;;;;;;;5.25;72.01;101115.50;5068122;28;20472;-52
2021/03/27 08:27:41;;;;;;;10.00;1.63;;;;;;;5.34;72.28;101124.69;5072391;28;20086;-53
2021/03/27 08:30:25;;;;;;;13.95;2.58;;;;;;;5.45;71.88;101125.31;5070975;28;20044;-54
2021/03/27 08:33:04;;;;;;;14.63;2.38;;;;;;;5.53;72.16;101122.66;5071427;28;20044;-55
2021/03/27 08:35:51;;;;;;;9.45;2.65;;;;;;;5.65;72.13;101132.34;5071152;28;20057;-52
2021/03/27 08:38:55;;;;;;;14.48;2.65;;;;;;;5.77;71.70;101132.69;5070693;28;20845;-55
2021/03/27 08:41:48;;;;;;;7.88;3.55;;;;;;;5.85;71.57;101137.50;5066900;28;20040;-53
2021/03/27 08:44:36;;;;;;;11.90;2.28;;;;;;;5.93;71.86;101136.81;5070300;28;20506;-50
2021/03/27 08:47:15;;;;;;;12.60;2.30;;;;;;;6.04;71.19;101146.47;5071663;28;20040;-53
2021/03/27 08:50:07;;;;;;;8.93;2.35;;;;;;;6.20;71.53;101145.03;5066676;28;20040;-51
2021/03/27 08:52:44;;;;;;;12.70;2.85;;;;;;;6.38;71.23;101154.31;5069158;28;20048;-55
2021/03/27 08:55:51;;;;;;;13.50;4.40;;;;;;;6.60;70.98;101154.34;5068059;28;20044;-49
2021/03/27 08:58:30;;;;;;;12.90;3.25;;;;;;;6.79;72.11;101168.78;5009048;28;20054;-53
2021/03/27 09:01:14;;;;;;;10.10;2.47;;;;;;;6.98;71.29;101163.13;5008348;28;20124;-54
2021/03/27 09:04:01;;;;;;;10.32;3.03;;;;;;;7.17;73.08;101167.34;5038427;28;20048;-52
2021/03/27 09:06:29;;;;;;;7.50;2.75;;;;;;;7.48;73.75;101167.41;5063847;28;20060;-51
2021/03/27 09:09:21;;;;;;;15.95;3.65;;;;;;;7.75;73.78;101159.00;5064974;28;20055;-49
2021/03/27 09:11:50;;;;;;;12.60;2.58;;;;;;;8.12;74.31;101160.44;5038127;28;20134;-50
2021/03/27 09:14:32;;;;;;;9.85;2.67;;;;;;;8.70;74.23;101168.44;5068710;28;20068;-53
2021/03/27 09:17:29;;;;;;;13.85;2.60;;;;;;;9.46;68.71;101168.75;5052527;28;20469;-51
2021/03/27 09:20:02;;;;;;;12.15;2.63;;;;;;;10.08;69.36;101171.84;5069997;28;20560;-53
2021/03/27 09:23:05;;;;;;;12.40;1.88;;;;;;;10.06;65.39;101188.75;5068928;28;20094;-53
2021/03/27 09:25:53;;;;;;;11.32;2.63;;;;;;;9.79;66.43;101181.69;5065149;28;20048;-53
2021/03/27 09:28:32;;;;;;;14.73;2.92;;;;;;;9.84;65.69;101163.31;5069668;28;20044;-54
2021/03/27 09:31:19;;;;;;;12.00;2.53;;;;;;;9.89;64.72;101157.59;5068826;28;20052;-51
2021/03/27 09:34:01;;;;;;;17.23;2.47;;;;;;;10.01;63.99;101169.59;5069972;28;20040;-53
2021/03/27 09:36:51;;;;;;;6.43;1.92;;;;;;;10.15;63.19;101161.09;5069313;28;20040;-51
2021/03/27 09:39:32;;;;;;;14.02;2.30;;;;;;;10.35;64.23;101172.22;5068008;28;20227;-48
2021/03/27 09:42:23;;;;;;;15.65;4.43;;;;;;;10.77;61.45;101170.38;5068437;28;20454;-52
2021/03/27 09:45:16;;;;;;;10.85;2.28;;;;;;;11.27;60.45;101175.84;5065208;28;20044;-53
2021/03/27 09:47:55;;;;;;;10.02;3.15;;;;;;;11.32;61.03;101183.97;5053099;28;20103;-54
2021/03/27 09:50:52;;;;;;;12.77;2.28;;;;;;;10.88;60.62;101173.56;5067886;28;20052;-54
2021/03/27 09:53:50;;;;;;;13.07;1.77;;;;;;;10.44;59.60;101191.56;5048830;28;20147;-53
2021/03/27 09:56:33;;;;;;;10.90;2.10;;;;;;;10.69;60.54;101181.50;5063263;28;20068;-52
2021/03/27 09:59:36;;;;;;;10.27;1.92;;;;;;;11.36;59.75;101184.88;5057666;28;20052;-50
2021/03/27 10:02:17;;;;;;;13.05;2.03;;;;;;;11.99;60.84;101180.06;5053828;28;20156;-53
2021/03/27 10:05:05;;;;;;;12.05;1.90;;;;;;;12.36;59.66;101176.16;5061568;28;20056;-50
2021/03/27 10:07:42;;;;;;;11.85;1.98;;;;;;;12.50;57.32;101173.03;5060424;28;20513;-51
2021/03/27 10:10:19;;;;;;;9.80;2.20;;;;;;;12.55;56.63;101172.81;5071644;28;20040;-51
2021/03/27 10:13:04;;;;;;;5.43;1.60;;;;;;;12.65;55.31;101170.38;5072784;28;20052;-49
2021/03/27 10:15:48;;;;;;;11.75;2.70;;;;;;;12.59;56.95;101177.31;5051607;28;20049;-51
2021/03/27 10:18:32;;;;;;;9.02;1.60;;;;;;;12.69;56.08;101171.28;5052968;28;20459;-51
2021/03/27 10:21:42;;;;;;;13.15;2.63;;;;;;;12.68;53.75;101163.31;5053075;28;20076;-53
2021/03/27 10:24:29;;;;;;;6.65;1.45;;;;;;;12.49;54.52;101160.31;5054442;28;20105;-53
2021/03/27 10:27:17;;;;;;;7.80;1.30;;;;;;;12.24;54.44;101159.50;5052946;28;20040;-52
2021/03/27 10:29:56;;;;;;;8.43;1.58;;;;;;;12.02;54.68;101160.72;5070609;28;20041;-52
2021/03/27 10:32:49;;;;;;;5.80;1.50;;;;;;;11.69;54.43;101159.97;5072061;28;20044;-52
2021/03/27 10:35:40;;;;;;;5.40;1.08;;;;;;;11.90;55.13;101154.34;5071069;28;20121;-52
2021/03/27 10:38:24;;;;;;;10.60;1.55;;;;;;;12.29;54.41;101162.03;5050829;28;20041;-53
2021/03/27 10:40:56;;;;;;;4.25;1.20;;;;;;;12.56;53.72;101149.41;5032489;28;20126;-52
2021/03/27 10:43:49;;;;;;;4.10;1.45;;;;;;;12.61;52.84;101154.72;5034307;28;20112;-52
2021/03/27 10:46:37;;;;;;;6.68;1.52;;;;;;;12.67;53.24;101133.91;5042317;28;20096;-53
2021/03/27 10:49:12;;;;;;;4.32;1.08;;;;;;;12.87;51.88;101134.91;5030761;28;20626;-54
2021/03/27 10:51:44;;;;;;;4.80;1.48;;;;;;;12.91;53.08;101144.16;5051994;28;20489;-48
2021/03/27 10:54:13;;;;;;;;;;;;;;;12.73;51.62;101140.84;5052195;28;20131;-52
2021/03/27 10:56:59;;;;;;;8.23;1.40;;;;;;;12.60;52.50;101140.03;5050964;28;20647;-50
2021/03/27 10:59:32;;;;;;;5.13;1.15;;;;;;;12.67;53.42;101131.13;5051842;28;20041;-52
2021/03/27 11:02:42;;;;;;;3.90;1.17;;;;;;;12.50;52.52;101118.28;5034495;28;20401;-51
2021/03/27 11:05:34;;;;;;;9.80;2.30;;;;;;;12.12;53.16;101137.28;5051597;28;20468;-53
2021/03/27 11:08:22;;;;;;;6.20;1.42;;;;;;;12.06;53.75;101113.69;5051383;28;20494;-53
2021/03/27 11:11:01;;;;;;;9.18;2.10;;;;;;;12.04;53.91;101091.03;5050158;28;20052;-49
2021/03/27 11:13:51;;;;;;;4.93;1.70;;;;;;;11.96;53.91;101100.28;5050124;28;20080;-53
2021/03/27 11:16:38;;;;;;;7.00;1.63;;;;;;;11.88;54.33;101106.75;5051410;28;20077;-52
2021/03/27 11:19:20;;;;;;;4.88;2.00;;;;;;;11.61;53.70;101110.94;5051337;28;20045;-53
2021/03/27 11:22:14;;;;;;;6.03;1.50;;;;;;;11.40;54.60;101111.00;5051128;28;20037;-53
2021/03/27 11:25:08;;;;;;;8.80;2.28;;;;;;;11.27;55.29;101114.88;5034422;28;20079;-53
2021/03/27 11:27:41;;;;;;;3.70;1.77;;;;;;;11.13;55.81;101113.53;5050036;28;20417;-52
2021/03/27 11:30:14;;;;;;;9.95;1.70;;;;;;;10.94;56.20;101106.53;5049048;28;20095;-51
2021/03/27 11:32:44;;;;;;;8.18;1.95;;;;;;;10.79;56.46;101092.47;5051347;28;20041;-53
2021/03/27 11:35:20;;;;;;;10.90;2.55;;;;;;;10.76;56.72;101098.69;5050975;28;20098;-50
2021/03/27 11:37:59;;;;;;;6.32;1.27;;;;;;;10.78;56.47;101086.13;5050714;28;20049;-51
2021/03/27 11:40:42;;;;;;;7.70;1.60;;;;;;;10.86;56.72;101081.66;5050318;28;20124;-50
2021/03/27 11:43:36;;;;;;;12.15;1.77;;;;;;;10.93;56.81;101081.94;5045602;28;20049;-54
2021/03/27 11:46:13;;;;;;;7.43;2.78;;;;;;;10.94;56.87;101073.28;5045394;28;20120;-53
2021/03/27 11:49:06;;;;;;;7.53;1.52;;;;;;;10.93;57.07;101071.66;5050997;28;20491;-51
2021/03/27 11:51:45;;;;;;;7.20;1.52;;;;;;;10.99;56.79;101067.53;5049098;28;20569;-49
2021/03/27 11:54:26;;;;;;;11.88;1.60;;;;;;;11.07;57.17;101074.13;5045479;28;20049;-53
2021/03/27 11:57:14;;;;;;;8.65;1.63;;;;;;;11.05;57.08;101079.22;5046717;28;20060;-49
2021/03/27 12:02:55;;;;;;;9.35;1.52;;;;;;;10.93;56.44;101081.94;5049220;28;20037;-49
2021/03/27 12:05:43;;;;;;;6.85;1.15;;;;;;;10.90;55.76;101066.00;5049466;28;20069;-52
2021/03/27 12:08:20;;;;;;;9.02;1.83;;;;;;;10.93;56.16;101076.41;5032420;28;20077;-50
2021/03/27 12:10:59;;;;;;;5.35;2.78;;;;;;;10.85;55.66;101058.72;5042277;28;20060;-53
2021/03/27 12:13:32;;;;;;;10.73;1.65;;;;;;;10.87;56.24;101061.13;5048576;28;20441;-49
2021/03/27 12:16:25;;;;;;;5.78;1.42;;;;;;;10.84;55.28;101050.72;5049763;28;20055;-48
2021/03/27 12:19:13;;;;;;;3.83;1.05;;;;;;;10.84;55.59;101048.78;5050183;28;20563;-48
2021/03/27 12:22:09;;;;;;;3.75;0.90;;;;;;;10.82;55.24;101050.25;5049203;28;20041;-50
2021/03/27 12:24:38;;;;;;;5.03;1.05;;;;;;;10.89;55.92;101040.25;5049274;28;20159;-48
2021/03/27 12:27:17;;;;;;;9.82;1.20;;;;;;;10.99;55.83;101039.00;5050135;28;20465;-43
2021/03/27 12:30:00;;;;;;;6.53;1.30;;;;;;;11.02;55.05;101047.47;5049187;28;20084;-53
2021/03/27 12:32:26;;;;;;;4.85;1.40;;;;;;;11.04;55.82;101058.19;5050910;28;20049;-47
2021/03/27 12:35:12;;;;;;;3.45;1.75;;;;;;;11.09;55.70;101035.84;5049210;28;20045;-48
2021/03/27 12:37:41;;;;;;;15.13;1.95;;;;;;;11.04;55.82;101038.78;5049018;28;20080;-46
2021/03/27 12:40:30;;;;;;;4.20;1.20;;;;;;;11.02;55.98;101032.78;5050235;28;20045;-52
2021/03/27 12:43:05;;;;;;;6.85;1.30;;;;;;;11.01;55.94;101022.88;5049855;28;20163;-49
2021/03/27 12:45:46;;;;;;;9.88;1.45;;;;;;;11.00;56.23;101012.94;5040367;28;20064;-50